sensor_id;sensor_type;location;lat;lon;timestamp;temperature;humidity
18797;DHT22;9526;52.612;13.300;2023-03-01T00:00:16;-2.30;99.90
18797;DHT22;9526;52.612;13.300;2023-03-01T00:02:40;-2.40;99.90
18797;DHT22;9526;52.612;13.300;2023-03-01T00:05:07;-2.40;99.90
18797;DHT22;9526;52.612;13.300;2023-03-01T00:07:30;-2.40;99.90
18797;DHT22;9526;52.612;13.300;2023-03-01T00:09:54;-2.40;99.90
18797;DHT22;9526;52.612;13.300;2023-03-01T00:12:18;-2.40;99.90
18797;DHT22;9526;52.612;13.300;2023-03-01T00:14:41;-2.50;99.90
18797;DHT22;9526;52.612;13.300;2023-03-01T00:17:05;-2.50;99.90
18797;DHT22;9526;52.612;13.300;2023-03-01T00:19:28;-2.40;99.90
18797;DHT22;9526;52.612;13.300;2023-03-01T00:21:55;-2.60;99.90
18797;DHT22;9526;52.612;13.300;2023-03-01T00:24:19;-2.50;99.90
18797;DHT22;9526;52.612;13.300;2023-03-01T00:26:42;-2.50;99.90
18797;DHT22;9526;52.612;13.300;2023-03-01T00:29:06;-2.60;99.90
18797;DHT22;9526;52.612;13.300;2023-03-01T00:31:31;-2.60;99.90
18797;DHT22;9526;52.612;13.300;2023-03-01T00:33:56;-2.50;99.90
18797;DHT22;9526;52.612;13.300;2023-03-01T00:36:21;-2.70;99.90
18797;DHT22;9526;52.612;13.300;2023-03-01T00:38:46;-2.70;99.90
18797;DHT22;9526;52.612;13.300;2023-03-01T00:41:11;-2.70;99.90
18797;DHT22;9526;52.612;13.300;2023-03-01T00:43:36;-2.80;99.90
18797;DHT22;9526;52.612;13.300;2023-03-01T00:46:01;-2.80;99.90
18797;DHT22;9526;52.612;13.300;2023-03-01T00:48:25;-2.80;99.90
18797;DHT22;9526;52.612;13.300;2023-03-01T00:50:49;-2.80;99.90
18797;DHT22;9526;52.612;13.300;2023-03-01T00:53:12;-2.80;99.90
18797;DHT22;9526;52.612;13.300;2023-03-01T00:55:37;-2.80;99.90
18797;DHT22;9526;52.612;13.300;2023-03-01T00:58:01;-2.80;99.90
18797;DHT22;9526;52.612;13.300;2023-03-01T01:00:24;-2.80;99.90
18797;DHT22;9526;52.612;13.300;2023-03-01T01:02:50;-2.90;99.90
18797;DHT22;9526;52.612;13.300;2023-03-01T01:05:13;-2.90;99.90
18797;DHT22;9526;52.612;13.300;2023-03-01T01:07:42;-2.90;99.90
18797;DHT22;9526;52.612;13.300;2023-03-01T01:10:07;-2.90;99.90
18797;DHT22;9526;52.612;13.300;2023-03-01T01:12:40;-2.90;99.90
18797;DHT22;9526;52.612;13.300;2023-03-01T01:15:04;-2.90;99.90
18797;DHT22;9526;52.612;13.300;2023-03-01T01:17:28;-3.00;99.90
18797;DHT22;9526;52.612;13.300;2023-03-01T01:19:52;-3.00;99.90
18797;DHT22;9526;52.612;13.300;2023-03-01T01:22:16;-2.80;99.90
18797;DHT22;9526;52.612;13.300;2023-03-01T01:24:39;-2.90;99.90
18797;DHT22;9526;52.612;13.300;2023-03-01T01:27:04;-3.00;99.90
18797;DHT22;9526;52.612;13.300;2023-03-01T01:29:30;-3.00;99.90
18797;DHT22;9526;52.612;13.300;2023-03-01T01:31:54;-3.00;99.90
18797;DHT22;9526;52.612;13.300;2023-03-01T01:34:19;-3.00;99.90
18797;DHT22;9526;52.612;13.300;2023-03-01T01:36:44;-3.10;99.90
18797;DHT22;9526;52.612;13.300;2023-03-01T01:39:11;-3.10;99.90
18797;DHT22;9526;52.612;13.300;2023-03-01T01:41:35;-3.00;99.90
18797;DHT22;9526;52.612;13.300;2023-03-01T01:44:17;-3.00;99.90
18797;DHT22;9526;52.612;13.300;2023-03-01T01:46:45;-3.10;99.90
18797;DHT22;9526;52.612;13.300;2023-03-01T01:49:22;-3.10;99.90
18797;DHT22;9526;52.612;13.300;2023-03-01T01:51:51;-3.10;99.90
18797;DHT22;9526;52.612;13.300;2023-03-01T01:54:21;-3.20;99.90
18797;DHT22;9526;52.612;13.300;2023-03-01T01:56:51;-3.20;99.90
18797;DHT22;9526;52.612;13.300;2023-03-01T01:59:18;-3.20;99.90
18797;DHT22;9526;52.612;13.300;2023-03-01T02:01:47;-3.20;99.90
18797;DHT22;9526;52.612;13.300;2023-03-01T02:04:11;-3.20;99.90
18797;DHT22;9526;52.612;13.300;2023-03-01T02:06:38;-3.30;99.90
18797;DHT22;9526;52.612;13.300;2023-03-01T02:09:07;-3.30;99.90
18797;DHT22;9526;52.612;13.300;2023-03-01T02:11:34;-3.30;99.90
18797;DHT22;9526;52.612;13.300;2023-03-01T02:14:00;-3.20;99.90
18797;DHT22;9526;52.612;13.300;2023-03-01T02:16:23;-3.20;99.90
18797;DHT22;9526;52.612;13.300;2023-03-01T02:18:51;-3.40;99.90
18797;DHT22;9526;52.612;13.300;2023-03-01T02:24:13;-3.40;99.90
18797;DHT22;9526;52.612;13.300;2023-03-01T02:26:46;-3.40;99.90
18797;DHT22;9526;52.612;13.300;2023-03-01T02:29:13;-3.40;99.90
18797;DHT22;9526;52.612;13.300;2023-03-01T02:31:37;-3.40;99.90
18797;DHT22;9526;52.612;13.300;2023-03-01T02:34:07;-3.40;99.90
18797;DHT22;9526;52.612;13.300;2023-03-01T02:36:35;-3.40;99.90
18797;DHT22;9526;52.612;13.300;2023-03-01T02:39:02;-3.30;99.90
18797;DHT22;9526;52.612;13.300;2023-03-01T02:41:30;-3.40;99.90
18797;DHT22;9526;52.612;13.300;2023-03-01T02:43:55;-3.40;99.90
18797;DHT22;9526;52.612;13.300;2023-03-01T02:46:22;-3.40;99.90
18797;DHT22;9526;52.612;13.300;2023-03-01T02:48:48;-3.40;99.90
18797;DHT22;9526;52.612;13.300;2023-03-01T02:51:26;-3.50;99.90
18797;DHT22;9526;52.612;13.300;2023-03-01T02:54:10;-3.40;99.90
18797;DHT22;9526;52.612;13.300;2023-03-01T02:56:39;-3.40;99.90
18797;DHT22;9526;52.612;13.300;2023-03-01T02:59:04;-3.50;99.90
18797;DHT22;9526;52.612;13.300;2023-03-01T03:01:30;-3.50;99.90
18797;DHT22;9526;52.612;13.300;2023-03-01T03:04:01;-3.50;99.90
18797;DHT22;9526;52.612;13.300;2023-03-01T03:06:26;-3.40;99.90
18797;DHT22;9526;52.612;13.300;2023-03-01T03:08:49;-3.60;99.90
18797;DHT22;9526;52.612;13.300;2023-03-01T03:11:13;-3.60;99.90
18797;DHT22;9526;52.612;13.300;2023-03-01T03:13:37;-3.60;99.90
18797;DHT22;9526;52.612;13.300;2023-03-01T03:16:10;-3.60;99.90
18797;DHT22;9526;52.612;13.300;2023-03-01T03:18:35;-3.50;99.90
18797;DHT22;9526;52.612;13.300;2023-03-01T03:20:59;-3.60;99.90
18797;DHT22;9526;52.612;13.300;2023-03-01T03:23:23;-3.60;99.90
18797;DHT22;9526;52.612;13.300;2023-03-01T03:25:48;-3.70;99.90
18797;DHT22;9526;52.612;13.300;2023-03-01T03:28:12;-3.60;99.90
18797;DHT22;9526;52.612;13.300;2023-03-01T03:30:39;-3.60;99.90
18797;DHT22;9526;52.612;13.300;2023-03-01T03:33:03;-3.70;99.90
18797;DHT22;9526;52.612;13.300;2023-03-01T03:35:30;-3.70;99.90
18797;DHT22;9526;52.612;13.300;2023-03-01T03:37:57;-3.70;99.90
18797;DHT22;9526;52.612;13.300;2023-03-01T03:40:26;-3.70;99.90
18797;DHT22;9526;52.612;13.300;2023-03-01T03:42:50;-3.70;99.90
18797;DHT22;9526;52.612;13.300;2023-03-01T03:45:14;-3.70;99.90
18797;DHT22;9526;52.612;13.300;2023-03-01T03:47:38;-3.70;99.90
18797;DHT22;9526;52.612;13.300;2023-03-01T03:50:01;-3.70;99.90
18797;DHT22;9526;52.612;13.300;2023-03-01T03:52:26;-3.70;99.90
18797;DHT22;9526;52.612;13.300;2023-03-01T03:54:50;-3.60;99.90
18797;DHT22;9526;52.612;13.300;2023-03-01T03:57:14;-3.80;99.90
18797;DHT22;9526;52.612;13.300;2023-03-01T03:59:37;-3.80;99.90
18797;DHT22;9526;52.612;13.300;2023-03-01T04:02:01;-3.80;99.90
18797;DHT22;9526;52.612;13.300;2023-03-01T04:04:24;-3.80;99.90
18797;DHT22;9526;52.612;13.300;2023-03-01T04:06:48;-3.80;99.90
18797;DHT22;9526;52.612;13.300;2023-03-01T04:09:13;-3.70;99.90
18797;DHT22;9526;52.612;13.300;2023-03-01T04:11:36;-3.90;99.90
18797;DHT22;9526;52.612;13.300;2023-03-01T04:14:00;-3.80;99.90
18797;DHT22;9526;52.612;13.300;2023-03-01T04:16:26;-3.90;99.90
18797;DHT22;9526;52.612;13.300;2023-03-01T04:18:50;-3.80;99.90
18797;DHT22;9526;52.612;13.300;2023-03-01T04:21:15;-3.80;99.90
18797;DHT22;9526;52.612;13.300;2023-03-01T04:23:39;-3.90;99.90
18797;DHT22;9526;52.612;13.300;2023-03-01T04:26:05;-3.90;99.90
18797;DHT22;9526;52.612;13.300;2023-03-01T04:28:30;-4.00;99.90
18797;DHT22;9526;52.612;13.300;2023-03-01T04:30:57;-4.00;99.90
18797;DHT22;9526;52.612;13.300;2023-03-01T04:33:23;-4.00;99.90
18797;DHT22;9526;52.612;13.300;2023-03-01T04:35:47;-4.00;99.90
18797;DHT22;9526;52.612;13.300;2023-03-01T04:38:11;-4.00;99.90
18797;DHT22;9526;52.612;13.300;2023-03-01T04:40:35;-4.00;99.90
18797;DHT22;9526;52.612;13.300;2023-03-01T04:43:00;-4.10;99.90
18797;DHT22;9526;52.612;13.300;2023-03-01T04:45:24;-4.10;99.90
18797;DHT22;9526;52.612;13.300;2023-03-01T04:47:48;-4.10;99.90
18797;DHT22;9526;52.612;13.300;2023-03-01T04:50:15;-4.10;99.90
18797;DHT22;9526;52.612;13.300;2023-03-01T04:52:42;-4.10;99.90
18797;DHT22;9526;52.612;13.300;2023-03-01T04:55:07;-4.10;99.90
18797;DHT22;9526;52.612;13.300;2023-03-01T04:57:32;-4.10;99.90
18797;DHT22;9526;52.612;13.300;2023-03-01T04:59:57;-4.10;99.90
18797;DHT22;9526;52.612;13.300;2023-03-01T05:02:21;-4.10;99.90
18797;DHT22;9526;52.612;13.300;2023-03-01T05:04:44;-4.10;99.90
18797;DHT22;9526;52.612;13.300;2023-03-01T05:07:08;-4.20;99.90
18797;DHT22;9526;52.612;13.300;2023-03-01T05:09:32;-4.20;99.90
18797;DHT22;9526;52.612;13.300;2023-03-01T05:11:55;-4.20;99.90
18797;DHT22;9526;52.612;13.300;2023-03-01T05:14:19;-4.20;99.90
18797;DHT22;9526;52.612;13.300;2023-03-01T05:16:44;-4.20;99.90
18797;DHT22;9526;52.612;13.300;2023-03-01T05:19:07;-4.20;99.90
18797;DHT22;9526;52.612;13.300;2023-03-01T05:21:37;-4.20;99.90
18797;DHT22;9526;52.612;13.300;2023-03-01T05:24:21;-4.20;99.90
18797;DHT22;9526;52.612;13.300;2023-03-01T05:26:45;-4.20;99.90
18797;DHT22;9526;52.612;13.300;2023-03-01T05:29:10;-4.20;99.90
18797;DHT22;9526;52.612;13.300;2023-03-01T05:31:33;-4.20;99.90
18797;DHT22;9526;52.612;13.300;2023-03-01T05:33:58;-4.30;99.90
18797;DHT22;9526;52.612;13.300;2023-03-01T05:36:22;-4.30;99.90
18797;DHT22;9526;52.612;13.300;2023-03-01T05:38:45;-4.30;99.90
18797;DHT22;9526;52.612;13.300;2023-03-01T05:41:14;-4.30;99.90
18797;DHT22;9526;52.612;13.300;2023-03-01T05:43:38;-4.30;99.90
18797;DHT22;9526;52.612;13.300;2023-03-01T05:46:05;-4.30;99.90
18797;DHT22;9526;52.612;13.300;2023-03-01T05:48:29;-4.30;99.90
18797;DHT22;9526;52.612;13.300;2023-03-01T05:50:53;-4.30;99.90
18797;DHT22;9526;52.612;13.300;2023-03-01T05:53:19;-4.30;99.90
18797;DHT22;9526;52.612;13.300;2023-03-01T05:55:43;-4.30;99.90
18797;DHT22;9526;52.612;13.300;2023-03-01T05:58:11;-4.30;99.90
18797;DHT22;9526;52.612;13.300;2023-03-01T06:00:37;-4.30;99.90
18797;DHT22;9526;52.612;13.300;2023-03-01T06:03:02;-4.30;99.90
18797;DHT22;9526;52.612;13.300;2023-03-01T06:05:26;-4.30;99.90
18797;DHT22;9526;52.612;13.300;2023-03-01T06:07:51;-4.20;99.90
18797;DHT22;9526;52.612;13.300;2023-03-01T06:10:16;-4.30;99.90
18797;DHT22;9526;52.612;13.300;2023-03-01T06:12:42;-4.40;99.90
18797;DHT22;9526;52.612;13.300;2023-03-01T06:15:07;-4.30;99.90
18797;DHT22;9526;52.612;13.300;2023-03-01T06:17:33;-4.30;99.90
18797;DHT22;9526;52.612;13.300;2023-03-01T06:19:59;-4.30;99.90
18797;DHT22;9526;52.612;13.300;2023-03-01T06:22:23;-4.20;99.90
18797;DHT22;9526;52.612;13.300;2023-03-01T06:24:48;-4.20;99.90
18797;DHT22;9526;52.612;13.300;2023-03-01T06:27:12;-4.20;99.90
18797;DHT22;9526;52.612;13.300;2023-03-01T06:29:35;-4.20;99.90
18797;DHT22;9526;52.612;13.300;2023-03-01T06:31:59;-4.10;99.90
18797;DHT22;9526;52.612;13.300;2023-03-01T06:34:23;-4.10;99.90
18797;DHT22;9526;52.612;13.300;2023-03-01T06:36:46;-4.10;99.90
18797;DHT22;9526;52.612;13.300;2023-03-01T06:39:10;-4.00;99.90
18797;DHT22;9526;52.612;13.300;2023-03-01T06:41:35;-4.00;99.90
18797;DHT22;9526;52.612;13.300;2023-03-01T06:43:59;-3.90;99.90
18797;DHT22;9526;52.612;13.300;2023-03-01T06:46:22;-3.90;99.90
18797;DHT22;9526;52.612;13.300;2023-03-01T06:48:46;-3.80;99.90
18797;DHT22;9526;52.612;13.300;2023-03-01T06:51:10;-3.60;99.90
18797;DHT22;9526;52.612;13.300;2023-03-01T06:53:33;-3.30;99.90
18797;DHT22;9526;52.612;13.300;2023-03-01T06:55:57;-3.10;99.90
18797;DHT22;9526;52.612;13.300;2023-03-01T06:58:23;-2.70;99.90
18797;DHT22;9526;52.612;13.300;2023-03-01T07:00:47;-2.00;99.90
18797;DHT22;9526;52.612;13.300;2023-03-01T07:03:10;-2.30;99.90
18797;DHT22;9526;52.612;13.300;2023-03-01T07:05:34;-2.20;99.90
18797;DHT22;9526;52.612;13.300;2023-03-01T07:07:58;-2.10;99.90
18797;DHT22;9526;52.612;13.300;2023-03-01T07:10:22;-2.20;99.90
18797;DHT22;9526;52.612;13.300;2023-03-01T07:12:45;-2.40;99.90
18797;DHT22;9526;52.612;13.300;2023-03-01T07:15:11;-2.20;99.90
18797;DHT22;9526;52.612;13.300;2023-03-01T07:17:35;-2.20;99.90
18797;DHT22;9526;52.612;13.300;2023-03-01T07:19:59;-2.20;99.90
18797;DHT22;9526;52.612;13.300;2023-03-01T07:22:22;-2.10;99.90
18797;DHT22;9526;52.612;13.300;2023-03-01T07:24:46;-2.10;99.90
18797;DHT22;9526;52.612;13.300;2023-03-01T07:27:10;-2.10;99.90
18797;DHT22;9526;52.612;13.300;2023-03-01T07:29:33;-2.00;99.90
18797;DHT22;9526;52.612;13.300;2023-03-01T07:31:59;-1.90;99.90
18797;DHT22;9526;52.612;13.300;2023-03-01T07:34:23;-1.80;99.90
18797;DHT22;9526;52.612;13.300;2023-03-01T07:36:47;-1.70;99.90
18797;DHT22;9526;52.612;13.300;2023-03-01T07:39:10;-1.80;99.90
18797;DHT22;9526;52.612;13.300;2023-03-01T07:41:34;-1.80;99.90
18797;DHT22;9526;52.612;13.300;2023-03-01T07:43:58;-1.70;99.90
18797;DHT22;9526;52.612;13.300;2023-03-01T07:46:22;-1.60;99.90
18797;DHT22;9526;52.612;13.300;2023-03-01T07:48:47;-1.50;99.90
18797;DHT22;9526;52.612;13.300;2023-03-01T07:51:10;-1.40;99.90
18797;DHT22;9526;52.612;13.300;2023-03-01T07:53:34;-1.40;99.90
18797;DHT22;9526;52.612;13.300;2023-03-01T07:56:02;-1.20;99.90
18797;DHT22;9526;52.612;13.300;2023-03-01T07:58:27;-1.10;99.90
18797;DHT22;9526;52.612;13.300;2023-03-01T08:00:50;-1.00;99.90
18797;DHT22;9526;52.612;13.300;2023-03-01T08:03:14;-0.80;99.90
18797;DHT22;9526;52.612;13.300;2023-03-01T08:05:42;-0.60;99.90
18797;DHT22;9526;52.612;13.300;2023-03-01T08:08:05;-0.40;99.90
18797;DHT22;9526;52.612;13.300;2023-03-01T08:10:29;-0.30;99.90
18797;DHT22;9526;52.612;13.300;2023-03-01T08:12:52;-0.10;99.90
18797;DHT22;9526;52.612;13.300;2023-03-01T08:15:16;0.00;99.90
18797;DHT22;9526;52.612;13.300;2023-03-01T08:17:40;0.10;99.90
18797;DHT22;9526;52.612;13.300;2023-03-01T08:20:05;0.20;99.90
18797;DHT22;9526;52.612;13.300;2023-03-01T08:22:30;0.40;99.90
18797;DHT22;9526;52.612;13.300;2023-03-01T08:24:54;0.50;99.90
18797;DHT22;9526;52.612;13.300;2023-03-01T08:27:18;0.70;99.90
18797;DHT22;9526;52.612;13.300;2023-03-01T08:29:42;1.10;99.90
18797;DHT22;9526;52.612;13.300;2023-03-01T08:32:06;1.20;99.90
18797;DHT22;9526;52.612;13.300;2023-03-01T08:34:29;1.40;99.90
18797;DHT22;9526;52.612;13.300;2023-03-01T08:36:53;1.60;99.90
18797;DHT22;9526;52.612;13.300;2023-03-01T08:39:19;2.00;99.90
18797;DHT22;9526;52.612;13.300;2023-03-01T08:41:43;2.40;99.90
18797;DHT22;9526;52.612;13.300;2023-03-01T08:44:10;2.70;99.90
18797;DHT22;9526;52.612;13.300;2023-03-01T08:46:36;3.00;99.90
18797;DHT22;9526;52.612;13.300;2023-03-01T08:49:03;3.50;99.90
18797;DHT22;9526;52.612;13.300;2023-03-01T08:51:28;4.10;99.90
18797;DHT22;9526;52.612;13.300;2023-03-01T08:53:54;4.60;99.90
18797;DHT22;9526;52.612;13.300;2023-03-01T08:56:19;5.20;99.90
18797;DHT22;9526;52.612;13.300;2023-03-01T08:58:44;5.60;99.90
18797;DHT22;9526;52.612;13.300;2023-03-01T09:01:09;5.90;99.90
18797;DHT22;9526;52.612;13.300;2023-03-01T09:03:33;6.40;99.90
18797;DHT22;9526;52.612;13.300;2023-03-01T09:06:00;6.80;99.90
18797;DHT22;9526;52.612;13.300;2023-03-01T09:08:24;7.20;99.90
18797;DHT22;9526;52.612;13.300;2023-03-01T09:10:47;7.60;99.90
18797;DHT22;9526;52.612;13.300;2023-03-01T09:13:12;7.80;99.90
18797;DHT22;9526;52.612;13.300;2023-03-01T09:15:37;8.10;99.90
18797;DHT22;9526;52.612;13.300;2023-03-01T09:18:00;8.50;99.90
18797;DHT22;9526;52.612;13.300;2023-03-01T09:20:24;8.70;99.90
18797;DHT22;9526;52.612;13.300;2023-03-01T09:22:48;8.70;99.90
18797;DHT22;9526;52.612;13.300;2023-03-01T09:25:11;8.80;99.90
18797;DHT22;9526;52.612;13.300;2023-03-01T09:27:35;9.10;99.90
18797;DHT22;9526;52.612;13.300;2023-03-01T09:30:00;9.40;99.90
18797;DHT22;9526;52.612;13.300;2023-03-01T09:32:26;9.70;99.90
18797;DHT22;9526;52.612;13.300;2023-03-01T09:34:50;10.20;99.80
18797;DHT22;9526;52.612;13.300;2023-03-01T09:37:27;10.20;99.90
18797;DHT22;9526;52.612;13.300;2023-03-01T09:39:51;10.60;97.80
18797;DHT22;9526;52.612;13.300;2023-03-01T09:42:15;10.60;97.20
18797;DHT22;9526;52.612;13.300;2023-03-01T09:44:45;11.00;98.90
18797;DHT22;9526;52.612;13.300;2023-03-01T09:47:17;11.40;98.00
18797;DHT22;9526;52.612;13.300;2023-03-01T09:49:43;11.50;97.10
18797;DHT22;9526;52.612;13.300;2023-03-01T09:52:19;11.40;92.20
18797;DHT22;9526;52.612;13.300;2023-03-01T09:54:46;11.20;93.50
18797;DHT22;9526;52.612;13.300;2023-03-01T09:57:18;11.30;92.80
18797;DHT22;9526;52.612;13.300;2023-03-01T09:59:57;11.50;93.70
18797;DHT22;9526;52.612;13.300;2023-03-01T10:02:33;11.80;93.20
18797;DHT22;9526;52.612;13.300;2023-03-01T10:05:13;12.30;92.90
18797;DHT22;9526;52.612;13.300;2023-03-01T10:07:47;12.30;87.10
18797;DHT22;9526;52.612;13.300;2023-03-01T10:10:26;12.80;92.40
18797;DHT22;9526;52.612;13.300;2023-03-01T10:12:53;12.80;85.40
18797;DHT22;9526;52.612;13.300;2023-03-01T10:15:18;12.80;81.50
18797;DHT22;9526;52.612;13.300;2023-03-01T10:17:55;12.70;89.00
18797;DHT22;9526;52.612;13.300;2023-03-01T10:20:23;13.00;84.20
18797;DHT22;9526;52.612;13.300;2023-03-01T10:22:48;12.80;86.60
18797;DHT22;9526;52.612;13.300;2023-03-01T10:25:15;12.80;83.50
18797;DHT22;9526;52.612;13.300;2023-03-01T10:27:45;13.10;87.90
18797;DHT22;9526;52.612;13.300;2023-03-01T10:30:20;13.20;83.70
18797;DHT22;9526;52.612;13.300;2023-03-01T10:32:48;13.20;81.70
18797;DHT22;9526;52.612;13.300;2023-03-01T10:35:18;13.40;77.10
18797;DHT22;9526;52.612;13.300;2023-03-01T10:37:57;12.80;75.70
18797;DHT22;9526;52.612;13.300;2023-03-01T10:40:21;13.00;76.50
18797;DHT22;9526;52.612;13.300;2023-03-01T10:42:48;12.70;78.30
18797;DHT22;9526;52.612;13.300;2023-03-01T10:45:19;12.90;82.20
18797;DHT22;9526;52.612;13.300;2023-03-01T10:48:03;13.30;81.20
18797;DHT22;9526;52.612;13.300;2023-03-01T10:50:38;13.60;75.30
18797;DHT22;9526;52.612;13.300;2023-03-01T10:53:04;13.70;77.90
18797;DHT22;9526;52.612;13.300;2023-03-01T10:55:33;13.60;73.80
18797;DHT22;9526;52.612;13.300;2023-03-01T10:58:16;13.40;73.50
18797;DHT22;9526;52.612;13.300;2023-03-01T11:00:49;13.20;75.40
18797;DHT22;9526;52.612;13.300;2023-03-01T11:03:19;13.20;78.50
18797;DHT22;9526;52.612;13.300;2023-03-01T11:05:54;13.20;74.40
18797;DHT22;9526;52.612;13.300;2023-03-01T11:08:32;13.20;72.70
18797;DHT22;9526;52.612;13.300;2023-03-01T11:11:05;13.20;73.10
18797;DHT22;9526;52.612;13.300;2023-03-01T11:13:30;13.40;75.30
18797;DHT22;9526;52.612;13.300;2023-03-01T11:15:59;13.30;71.30
18797;DHT22;9526;52.612;13.300;2023-03-01T11:18:26;13.00;71.70
18797;DHT22;9526;52.612;13.300;2023-03-01T11:21:08;12.90;78.90
18797;DHT22;9526;52.612;13.300;2023-03-01T11:23:33;13.10;73.80
18797;DHT22;9526;52.612;13.300;2023-03-01T11:26:01;12.90;73.20
18797;DHT22;9526;52.612;13.300;2023-03-01T11:28:28;12.70;73.50
18797;DHT22;9526;52.612;13.300;2023-03-01T11:30:55;12.60;72.90
18797;DHT22;9526;52.612;13.300;2023-03-01T11:33:36;12.40;73.40
18797;DHT22;9526;52.612;13.300;2023-03-01T11:36:06;12.20;70.30
18797;DHT22;9526;52.612;13.300;2023-03-01T11:38:35;12.10;74.10
18797;DHT22;9526;52.612;13.300;2023-03-01T11:41:03;12.20;71.50
18797;DHT22;9526;52.612;13.300;2023-03-01T11:43:35;12.20;77.50
18797;DHT22;9526;52.612;13.300;2023-03-01T11:49:57;11.90;69.00
18797;DHT22;9526;52.612;13.300;2023-03-01T11:52:36;11.70;68.70
18797;DHT22;9526;52.612;13.300;2023-03-01T11:55:20;11.70;74.20
18797;DHT22;9526;52.612;13.300;2023-03-01T11:58:04;11.60;73.60
18797;DHT22;9526;52.612;13.300;2023-03-01T12:00:53;11.70;75.90
18797;DHT22;9526;52.612;13.300;2023-03-01T12:03:30;11.40;71.50
18797;DHT22;9526;52.612;13.300;2023-03-01T12:06:19;11.20;74.60
18797;DHT22;9526;52.612;13.300;2023-03-01T12:09:02;11.20;76.40
18797;DHT22;9526;52.612;13.300;2023-03-01T12:11:42;11.40;91.10
18797;DHT22;9526;52.612;13.300;2023-03-01T12:14:35;11.20;73.60
18797;DHT22;9526;52.612;13.300;2023-03-01T12:17:14;11.50;92.30
18797;DHT22;9526;52.612;13.300;2023-03-01T12:20:18;11.60;80.80
18797;DHT22;9526;52.612;13.300;2023-03-01T12:22:57;11.40;73.80
18797;DHT22;9526;52.612;13.300;2023-03-01T12:25:45;11.50;83.20
18797;DHT22;9526;52.612;13.300;2023-03-01T12:34:38;11.10;73.60
18797;DHT22;9526;52.612;13.300;2023-03-01T12:37:29;10.90;80.20
18797;DHT22;9526;52.612;13.300;2023-03-01T12:40:14;10.80;73.40
18797;DHT22;9526;52.612;13.300;2023-03-01T12:42:51;10.60;75.40
18797;DHT22;9526;52.612;13.300;2023-03-01T12:45:33;10.60;76.80
18797;DHT22;9526;52.612;13.300;2023-03-01T12:48:17;10.40;86.20
18797;DHT22;9526;52.612;13.300;2023-03-01T12:50:50;10.40;81.60
18797;DHT22;9526;52.612;13.300;2023-03-01T12:53:22;10.40;97.40
18797;DHT22;9526;52.612;13.300;2023-03-01T12:55:49;10.20;78.20
18797;DHT22;9526;52.612;13.300;2023-03-01T12:58:21;10.20;88.00
18797;DHT22;9526;52.612;13.300;2023-03-01T13:01:09;10.30;93.80
18797;DHT22;9526;52.612;13.300;2023-03-01T13:04:02;10.20;90.50
18797;DHT22;9526;52.612;13.300;2023-03-01T13:06:46;10.10;85.10
18797;DHT22;9526;52.612;13.300;2023-03-01T13:09:23;9.90;80.70
18797;DHT22;9526;52.612;13.300;2023-03-01T13:11:51;9.70;80.60
18797;DHT22;9526;52.612;13.300;2023-03-01T13:14:36;9.80;95.30
18797;DHT22;9526;52.612;13.300;2023-03-01T13:17:01;9.80;83.50
18797;DHT22;9526;52.612;13.300;2023-03-01T13:19:26;9.70;82.90
18797;DHT22;9526;52.612;13.300;2023-03-01T13:21:53;9.60;77.90
18797;DHT22;9526;52.612;13.300;2023-03-01T13:24:25;9.50;78.70
18797;DHT22;9526;52.612;13.300;2023-03-01T13:27:20;9.40;77.30
18797;DHT22;9526;52.612;13.300;2023-03-01T13:29:48;9.50;86.30
18797;DHT22;9526;52.612;13.300;2023-03-01T13:32:23;9.40;80.70
18797;DHT22;9526;52.612;13.300;2023-03-01T13:35:41;9.40;78.70
18797;DHT22;9526;52.612;13.300;2023-03-01T13:38:37;9.30;81.90
18797;DHT22;9526;52.612;13.300;2023-03-01T13:41:01;9.20;84.50
18797;DHT22;9526;52.612;13.300;2023-03-01T13:43:32;9.20;84.90
18797;DHT22;9526;52.612;13.300;2023-03-01T13:45:58;9.20;86.20
18797;DHT22;9526;52.612;13.300;2023-03-01T13:48:26;9.30;90.00
18797;DHT22;9526;52.612;13.300;2023-03-01T13:50:54;9.20;85.20
18797;DHT22;9526;52.612;13.300;2023-03-01T13:53:24;9.20;84.60
18797;DHT22;9526;52.612;13.300;2023-03-01T13:55:51;9.20;84.00
18797;DHT22;9526;52.612;13.300;2023-03-01T13:58:23;9.10;85.10
18797;DHT22;9526;52.612;13.300;2023-03-01T14:00:56;9.00;83.90
18797;DHT22;9526;52.612;13.300;2023-03-01T14:03:20;9.00;86.30
18797;DHT22;9526;52.612;13.300;2023-03-01T14:05:58;9.00;85.80
18797;DHT22;9526;52.612;13.300;2023-03-01T14:08:36;8.90;86.70
18797;DHT22;9526;52.612;13.300;2023-03-01T14:11:27;8.90;89.20
18797;DHT22;9526;52.612;13.300;2023-03-01T14:14:14;8.90;84.40
18797;DHT22;9526;52.612;13.300;2023-03-01T14:16:52;8.90;84.90
18797;DHT22;9526;52.612;13.300;2023-03-01T14:19:24;8.90;83.30
18797;DHT22;9526;52.612;13.300;2023-03-01T14:22:01;8.90;85.20
18797;DHT22;9526;52.612;13.300;2023-03-01T14:24:31;8.90;84.20
18797;DHT22;9526;52.612;13.300;2023-03-01T14:27:03;8.90;84.60
18797;DHT22;9526;52.612;13.300;2023-03-01T14:29:33;8.80;83.20
18797;DHT22;9526;52.612;13.300;2023-03-01T14:32:15;8.80;83.90
18797;DHT22;9526;52.612;13.300;2023-03-01T14:34:43;8.80;83.70
18797;DHT22;9526;52.612;13.300;2023-03-01T14:37:11;8.80;83.90
18797;DHT22;9526;52.612;13.300;2023-03-01T14:39:42;8.80;83.40
18797;DHT22;9526;52.612;13.300;2023-03-01T14:42:05;8.80;87.00
18797;DHT22;9526;52.612;13.300;2023-03-01T14:44:38;8.70;84.10
18797;DHT22;9526;52.612;13.300;2023-03-01T14:47:04;8.70;84.90
18797;DHT22;9526;52.612;13.300;2023-03-01T14:49:30;8.60;85.30
18797;DHT22;9526;52.612;13.300;2023-03-01T14:51:59;8.60;86.10
18797;DHT22;9526;52.612;13.300;2023-03-01T14:54:27;8.60;90.90
18797;DHT22;9526;52.612;13.300;2023-03-01T14:56:59;8.50;90.20
18797;DHT22;9526;52.612;13.300;2023-03-01T14:59:24;8.50;90.50
18797;DHT22;9526;52.612;13.300;2023-03-01T15:01:48;8.50;90.40
18797;DHT22;9526;52.612;13.300;2023-03-01T15:04:13;8.50;91.20
18797;DHT22;9526;52.612;13.300;2023-03-01T15:06:38;8.50;91.80
18797;DHT22;9526;52.612;13.300;2023-03-01T15:09:03;8.50;92.90
18797;DHT22;9526;52.612;13.300;2023-03-01T15:11:29;8.40;92.60
18797;DHT22;9526;52.612;13.300;2023-03-01T15:13:53;8.40;93.10
18797;DHT22;9526;52.612;13.300;2023-03-01T15:16:19;8.30;94.40
18797;DHT22;9526;52.612;13.300;2023-03-01T15:18:45;8.30;94.30
18797;DHT22;9526;52.612;13.300;2023-03-01T15:21:16;8.30;95.00
18797;DHT22;9526;52.612;13.300;2023-03-01T15:23:48;8.30;95.80
18797;DHT22;9526;52.612;13.300;2023-03-01T15:26:24;8.30;95.40
18797;DHT22;9526;52.612;13.300;2023-03-01T15:28:52;8.20;96.20
18797;DHT22;9526;52.612;13.300;2023-03-01T15:31:22;8.20;97.10
18797;DHT22;9526;52.612;13.300;2023-03-01T15:33:47;8.10;97.20
18797;DHT22;9526;52.612;13.300;2023-03-01T15:36:43;8.10;97.50
18797;DHT22;9526;52.612;13.300;2023-03-01T15:39:33;8.10;97.90
18797;DHT22;9526;52.612;13.300;2023-03-01T15:42:04;8.10;97.80
18797;DHT22;9526;52.612;13.300;2023-03-01T15:44:31;8.00;98.10
18797;DHT22;9526;52.612;13.300;2023-03-01T15:47:23;7.90;98.20
18797;DHT22;9526;52.612;13.300;2023-03-01T15:49:52;7.90;98.10
18797;DHT22;9526;52.612;13.300;2023-03-01T15:52:24;7.90;99.00
18797;DHT22;9526;52.612;13.300;2023-03-01T15:54:52;7.90;99.20